sensor_id;sensor_type;location;lat;lon;timestamp;pressure;altitude;pressure_sealevel;temperature;humidity
62333;BME280;48624;49.812;8.562;2023-12-20T00:02:23;100667.00;;;4.27;100.00
62333;BME280;48624;49.812;8.562;2023-12-20T00:04:48;100662.47;;;4.53;100.00
62333;BME280;48624;49.812;8.562;2023-12-20T00:07:14;100659.16;;;4.26;100.00
62333;BME280;48624;49.812;8.562;2023-12-20T00:09:39;100648.94;;;4.42;100.00
62333;BME280;48624;49.812;8.562;2023-12-20T00:12:05;100652.56;;;4.15;100.00
62333;BME280;48624;49.812;8.562;2023-12-20T00:14:30;100655.28;;;4.36;100.00
62333;BME280;48624;49.812;8.562;2023-12-20T00:16:55;100653.94;;;4.26;100.00
62333;BME280;48624;49.812;8.562;2023-12-20T00:19:20;100665.47;;;4.44;100.00
62333;BME280;48624;49.812;8.562;2023-12-20T00:21:46;100652.88;;;4.30;100.00
62333;BME280;48624;49.812;8.562;2023-12-20T00:24:11;100652.88;;;4.30;100.00
62333;BME280;48624;49.812;8.562;2023-12-20T00:26:36;100648.97;;;4.40;100.00
62333;BME280;48624;49.812;8.562;2023-12-20T00:29:01;100648.31;;;4.35;100.00
62333;BME280;48624;49.812;8.562;2023-12-20T00:31:27;100648.47;;;4.32;100.00
62333;BME280;48624;49.812;8.562;2023-12-20T00:33:52;100634.97;;;4.19;100.00
62333;BME280;48624;49.812;8.562;2023-12-20T00:36:18;100645.09;;;4.28;100.00
62333;BME280;48624;49.812;8.562;2023-12-20T00:38:43;100640.25;;;4.18;100.00
62333;BME280;48624;49.812;8.562;2023-12-20T00:41:08;100647.41;;;4.36;100.00
62333;BME280;48624;49.812;8.562;2023-12-20T00:43:34;100646.81;;;4.29;100.00
62333;BME280;48624;49.812;8.562;2023-12-20T00:45:59;100640.88;;;4.47;100.00
62333;BME280;48624;49.812;8.562;2023-12-20T00:48:25;100638.94;;;4.29;100.00
62333;BME280;48624;49.812;8.562;2023-12-20T00:50:52;100631.25;;;4.25;100.00
62333;BME280;48624;49.812;8.562;2023-12-20T00:53:17;100628.31;;;4.33;100.00
62333;BME280;48624;49.812;8.562;2023-12-20T00:55:43;100629.00;;;4.38;100.00
62333;BME280;48624;49.812;8.562;2023-12-20T00:58:09;100622.75;;;4.40;100.00
62333;BME280;48624;49.812;8.562;2023-12-20T01:00:35;100621.97;;;4.38;100.00
62333;BME280;48624;49.812;8.562;2023-12-20T01:03:00;100615.31;;;4.29;100.00
62333;BME280;48624;49.812;8.562;2023-12-20T01:05:25;100617.94;;;4.29;100.00
62333;BME280;48624;49.812;8.562;2023-12-20T01:07:52;100628.19;;;4.36;100.00
62333;BME280;48624;49.812;8.562;2023-12-20T01:10:17;100621.97;;;4.38;100.00
62333;BME280;48624;49.812;8.562;2023-12-20T01:12:43;100616.47;;;4.22;100.00
62333;BME280;48624;49.812;8.562;2023-12-20T01:15:09;100620.25;;;4.37;100.00
62333;BME280;48624;49.812;8.562;2023-12-20T01:17:34;100619.13;;;4.44;100.00
62333;BME280;48624;49.812;8.562;2023-12-20T01:20:01;100615.97;;;4.35;100.00
62333;BME280;48624;49.812;8.562;2023-12-20T01:22:26;100606.81;;;4.45;100.00
62333;BME280;48624;49.812;8.562;2023-12-20T01:24:51;100610.72;;;4.35;100.00
62333;BME280;48624;49.812;8.562;2023-12-20T01:27:17;100607.50;;;4.28;100.00
62333;BME280;48624;49.812;8.562;2023-12-20T01:29:42;100607.09;;;4.39;100.00
62333;BME280;48624;49.812;8.562;2023-12-20T01:32:08;100596.78;;;4.34;100.00
62333;BME280;48624;49.812;8.562;2023-12-20T01:34:33;100608.06;;;4.36;100.00
62333;BME280;48624;49.812;8.562;2023-12-20T01:36:58;100611.72;;;4.32;100.00
62333;BME280;48624;49.812;8.562;2023-12-20T01:39:23;100622.84;;;4.39;100.00
62333;BME280;48624;49.812;8.562;2023-12-20T01:41:49;100619.16;;;4.43;100.00
62333;BME280;48624;49.812;8.562;2023-12-20T01:44:14;100625.31;;;4.20;100.00
62333;BME280;48624;49.812;8.562;2023-12-20T01:46:40;100626.19;;;4.42;100.00
62333;BME280;48624;49.812;8.562;2023-12-20T01:49:06;100616.34;;;4.25;100.00
62333;BME280;48624;49.812;8.562;2023-12-20T01:51:31;100611.22;;;4.22;100.00
62333;BME280;48624;49.812;8.562;2023-12-20T01:53:57;100615.84;;;4.15;100.00
62333;BME280;48624;49.812;8.562;2023-12-20T01:56:23;100614.06;;;4.16;100.00
62333;BME280;48624;49.812;8.562;2023-12-20T01:58:50;100613.22;;;4.15;100.00
62333;BME280;48624;49.812;8.562;2023-12-20T02:01:16;100613.22;;;4.15;100.00
62333;BME280;48624;49.812;8.562;2023-12-20T02:03:42;100619.78;;;4.27;100.00
62333;BME280;48624;49.812;8.562;2023-12-20T02:06:07;100633.97;;;4.22;100.00
62333;BME280;48624;49.812;8.562;2023-12-20T02:08:34;100621.72;;;4.22;100.00
62333;BME280;48624;49.812;8.562;2023-12-20T02:10:59;100622.09;;;4.35;100.00
62333;BME280;48624;49.812;8.562;2023-12-20T02:13:25;100630.31;;;4.26;100.00
62333;BME280;48624;49.812;8.562;2023-12-20T02:15:52;100618.59;;;4.35;100.00
62333;BME280;48624;49.812;8.562;2023-12-20T02:18:17;100629.44;;;4.25;100.00
62333;BME280;48624;49.812;8.562;2023-12-20T02:20:42;100621.72;;;4.22;100.00
62333;BME280;48624;49.812;8.562;2023-12-20T02:23:08;100624.19;;;4.49;100.00
62333;BME280;48624;49.812;8.562;2023-12-20T02:25:33;100614.28;;;4.34;100.00
62333;BME280;48624;49.812;8.562;2023-12-20T02:27:59;100598.34;;;4.38;100.00
62333;BME280;48624;49.812;8.562;2023-12-20T02:30:25;100601.09;;;4.35;100.00
62333;BME280;48624;49.812;8.562;2023-12-20T02:32:51;100599.03;;;4.21;100.00
62333;BME280;48624;49.812;8.562;2023-12-20T02:35:16;100596.09;;;4.29;100.00
62333;BME280;48624;49.812;8.562;2023-12-20T02:37:42;100596.69;;;4.36;100.00
62333;BME280;48624;49.812;8.562;2023-12-20T02:40:07;100597.97;;;4.25;100.00
62333;BME280;48624;49.812;8.562;2023-12-20T02:42:33;100596.84;;;4.33;100.00
62333;BME280;48624;49.812;8.562;2023-12-20T02:44:58;100605.63;;;4.32;100.00
62333;BME280;48624;49.812;8.562;2023-12-20T02:47:23;100596.63;;;4.15;100.00
62333;BME280;48624;49.812;8.562;2023-12-20T02:49:49;100595.06;;;4.11;100.00
62333;BME280;48624;49.812;8.562;2023-12-20T02:52:14;100591.72;;;4.29;100.00
62333;BME280;48624;49.812;8.562;2023-12-20T02:54:39;100593.72;;;4.23;100.00
62333;BME280;48624;49.812;8.562;2023-12-20T02:57:05;100604.03;;;4.27;100.00
62333;BME280;48624;49.812;8.562;2023-12-20T02:59:31;100606.16;;;4.18;100.00
62333;BME280;48624;49.812;8.562;2023-12-20T03:01:57;100602.63;;;4.19;100.00
62333;BME280;48624;49.812;8.562;2023-12-20T03:04:23;100611.91;;;4.27;100.00
62333;BME280;48624;49.812;8.562;2023-12-20T03:06:48;100608.09;;;4.12;100.00
62333;BME280;48624;49.812;8.562;2023-12-20T03:09:13;100588.59;;;4.20;100.00
62333;BME280;48624;49.812;8.562;2023-12-20T03:11:38;100585.50;;;4.32;100.00
62333;BME280;48624;49.812;8.562;2023-12-20T03:14:04;100590.56;;;4.14;100.00
62333;BME280;48624;49.812;8.562;2023-12-20T03:16:29;100608.97;;;4.13;100.00
62333;BME280;48624;49.812;8.562;2023-12-20T03:18:56;100607.03;;;4.18;100.00
62333;BME280;48624;49.812;8.562;2023-12-20T03:21:21;100618.75;;;4.08;100.00
62333;BME280;48624;49.812;8.562;2023-12-20T03:23:46;100617.91;;;4.07;100.00
62333;BME280;48624;49.812;8.562;2023-12-20T03:26:12;100622.81;;;4.16;100.00
62333;BME280;48624;49.812;8.562;2023-12-20T03:28:37;100621.03;;;4.17;100.00
62333;BME280;48624;49.812;8.562;2023-12-20T03:31:03;100616.53;;;4.21;100.00
62333;BME280;48624;49.812;8.562;2023-12-20T03:33:28;100623.00;;;4.34;100.00
62333;BME280;48624;49.812;8.562;2023-12-20T03:35:54;100611.81;;;4.07;100.00
62333;BME280;48624;49.812;8.562;2023-12-20T03:38:19;100614.53;;;4.27;100.00
62333;BME280;48624;49.812;8.562;2023-12-20T03:40:44;100614.28;;;4.34;100.00
62333;BME280;48624;49.812;8.562;2023-12-20T03:43:10;100621.72;;;4.44;100.00
62333;BME280;48624;49.812;8.562;2023-12-20T03:45:35;100621.66;;;4.24;100.00
62333;BME280;48624;49.812;8.562;2023-12-20T03:48:00;100616.44;;;4.46;100.00
62333;BME280;48624;49.812;8.562;2023-12-20T03:50:26;100619.16;;;4.43;100.00
62333;BME280;48624;49.812;8.562;2023-12-20T03:52:52;100626.13;;;4.44;100.00
62333;BME280;48624;49.812;8.562;2023-12-20T03:55:19;100621.78;;;4.43;100.00
62333;BME280;48624;49.812;8.562;2023-12-20T03:57:44;100631.63;;;4.38;100.00
62333;BME280;48624;49.812;8.562;2023-12-20T04:00:10;100627.75;;;4.47;100.00
62333;BME280;48624;49.812;8.562;2023-12-20T04:02:39;100627.53;;;4.53;100.00
62333;BME280;48624;49.812;8.562;2023-12-20T04:05:05;100627.63;;;4.50;100.00
62333;BME280;48624;49.812;8.562;2023-12-20T04:07:31;100629.06;;;4.58;100.00
62333;BME280;48624;49.812;8.562;2023-12-20T04:09:56;100623.25;;;4.50;100.00
62333;BME280;48624;49.812;8.562;2023-12-20T04:12:21;100633.38;;;4.60;100.00
62333;BME280;48624;49.812;8.562;2023-12-20T04:14:47;100634.81;;;4.46;100.00
62333;BME280;48624;49.812;8.562;2023-12-20T04:17:12;100630.38;;;4.47;100.00
62333;BME280;48624;49.812;8.562;2023-12-20T04:19:37;100632.84;;;4.51;100.00
62333;BME280;48624;49.812;8.562;2023-12-20T04:22:03;100633.06;;;4.67;100.00
62333;BME280;48624;49.812;8.562;2023-12-20T04:24:28;100635.81;;;4.64;100.00
62333;BME280;48624;49.812;8.562;2023-12-20T04:26:53;100646.28;;;4.66;100.00
62333;BME280;48624;49.812;8.562;2023-12-20T04:29:19;100648.91;;;4.66;100.00
62333;BME280;48624;49.812;8.562;2023-12-20T04:31:44;100650.22;;;4.76;100.00
62333;BME280;48624;49.812;8.562;2023-12-20T04:34:09;100650.09;;;4.79;100.00
62333;BME280;48624;49.812;8.562;2023-12-20T04:36:34;100650.97;;;4.80;100.00
62333;BME280;48624;49.812;8.562;2023-12-20T04:39:00;100649.56;;;4.71;100.00
62333;BME280;48624;49.812;8.562;2023-12-20T04:41:25;100662.72;;;4.69;100.00
62333;BME280;48624;49.812;8.562;2023-12-20T04:43:52;100656.13;;;4.81;100.00
62333;BME280;48624;49.812;8.562;2023-12-20T04:46:18;100664.59;;;4.88;100.00
62333;BME280;48624;49.812;8.562;2023-12-20T04:48:44;100650.66;;;4.88;100.00
62333;BME280;48624;49.812;8.562;2023-12-20T04:51:09;100654.09;;;4.88;100.00
62333;BME280;48624;49.812;8.562;2023-12-20T04:53:35;100662.63;;;4.72;100.00
62333;BME280;48624;49.812;8.562;2023-12-20T04:56:00;100671.78;;;4.84;100.00
62333;BME280;48624;49.812;8.562;2023-12-20T04:58:26;100680.34;;;4.88;100.00
62333;BME280;48624;49.812;8.562;2023-12-20T05:00:53;100678.38;;;4.95;100.00
62333;BME280;48624;49.812;8.562;2023-12-20T05:03:18;100686.16;;;4.96;100.00
62333;BME280;48624;49.812;8.562;2023-12-20T05:05:45;100689.97;;;4.89;100.00
62333;BME280;48624;49.812;8.562;2023-12-20T05:08:10;100684.94;;;4.61;100.00
62333;BME280;48624;49.812;8.562;2023-12-20T05:10:35;100687.94;;;4.74;100.00
62333;BME280;48624;49.812;8.562;2023-12-20T05:13:01;100689.59;;;4.54;100.00
62333;BME280;48624;49.812;8.562;2023-12-20T05:15:27;100695.44;;;4.61;100.00
62333;BME280;48624;49.812;8.562;2023-12-20T05:17:52;100696.84;;;4.47;100.00
62333;BME280;48624;49.812;8.562;2023-12-20T05:20:17;100691.81;;;4.41;100.00
62333;BME280;48624;49.812;8.562;2023-12-20T05:22:42;100699.28;;;4.52;100.00
62333;BME280;48624;49.812;8.562;2023-12-20T05:25:08;100698.22;;;4.34;100.00
62333;BME280;48624;49.812;8.562;2023-12-20T05:27:34;100708.09;;;4.27;100.00
62333;BME280;48624;49.812;8.562;2023-12-20T05:30:00;100709.31;;;4.40;100.00
62333;BME280;48624;49.812;8.562;2023-12-20T05:32:25;100718.81;;;4.44;100.00
62333;BME280;48624;49.812;8.562;2023-12-20T05:34:50;100728.38;;;4.46;100.00
62333;BME280;48624;49.812;8.562;2023-12-20T05:37:16;100725.72;;;4.47;100.00
62333;BME280;48624;49.812;8.562;2023-12-20T05:39:41;100726.31;;;4.54;100.00
62333;BME280;48624;49.812;8.562;2023-12-20T05:42:06;100739.97;;;4.40;100.00
62333;BME280;48624;49.812;8.562;2023-12-20T05:44:31;100733.00;;;4.39;100.00
62333;BME280;48624;49.812;8.562;2023-12-20T05:46:57;100740.94;;;4.37;100.00
62333;BME280;48624;49.812;8.562;2023-12-20T05:49:22;100738.81;;;4.23;100.00
62333;BME280;48624;49.812;8.562;2023-12-20T05:51:47;100739.69;;;4.24;100.00
62333;BME280;48624;49.812;8.562;2023-12-20T05:54:13;100744.69;;;4.30;100.00
62333;BME280;48624;49.812;8.562;2023-12-20T05:56:39;100740.44;;;4.27;100.00
62333;BME280;48624;49.812;8.562;2023-12-20T05:59:05;100742.97;;;4.29;100.00
62333;BME280;48624;49.812;8.562;2023-12-20T06:01:30;100742.00;;;4.32;100.00
62333;BME280;48624;49.812;8.562;2023-12-20T06:03:55;100745.94;;;4.20;100.00
62333;BME280;48624;49.812;8.562;2023-12-20T06:06:21;100743.09;;;4.26;100.00
62333;BME280;48624;49.812;8.562;2023-12-20T06:08:46;100745.03;;;4.21;100.00
62333;BME280;48624;49.812;8.562;2023-12-20T06:11:11;100747.03;;;4.14;100.00
62333;BME280;48624;49.812;8.562;2023-12-20T06:13:37;100740.94;;;4.37;100.00
62333;BME280;48624;49.812;8.562;2023-12-20T06:16:04;100741.22;;;4.29;100.00
62333;BME280;48624;49.812;8.562;2023-12-20T06:18:30;100736.47;;;4.39;100.00
62333;BME280;48624;49.812;8.562;2023-12-20T06:20:55;100751.97;;;4.22;100.00
62333;BME280;48624;49.812;8.562;2023-12-20T06:23:20;100746.13;;;4.39;100.00
62333;BME280;48624;49.812;8.562;2023-12-20T06:25:46;100755.53;;;4.44;100.00
62333;BME280;48624;49.812;8.562;2023-12-20T06:28:11;100754.75;;;4.42;100.00
62333;BME280;48624;49.812;8.562;2023-12-20T06:30:40;100749.53;;;4.41;100.00
62333;BME280;48624;49.812;8.562;2023-12-20T06:33:05;100747.66;;;4.21;100.00
62333;BME280;48624;49.812;8.562;2023-12-20T06:35:32;100755.41;;;4.24;100.00
62333;BME280;48624;49.812;8.562;2023-12-20T06:37:57;100760.72;;;4.22;100.00
62333;BME280;48624;49.812;8.562;2023-12-20T06:40:22;100763.47;;;4.19;100.00
62333;BME280;48624;49.812;8.562;2023-12-20T06:42:47;100774.38;;;4.07;100.00
62333;BME280;48624;49.812;8.562;2023-12-20T06:45:13;100773.91;;;3.95;100.00
62333;BME280;48624;49.812;8.562;2023-12-20T06:47:38;100775.88;;;3.88;100.00
62333;BME280;48624;49.812;8.562;2023-12-20T06:50:05;100767.06;;;3.91;100.00
62333;BME280;48624;49.812;8.562;2023-12-20T06:52:30;100763.59;;;3.64;100.00
62333;BME280;48624;49.812;8.562;2023-12-20T06:54:55;100760.47;;;3.54;100.00
62333;BME280;48624;49.812;8.562;2023-12-20T06:57:22;100761.53;;;3.73;100.00
62333;BME280;48624;49.812;8.562;2023-12-20T06:59:48;100780.03;;;3.42;100.00
62333;BME280;48624;49.812;8.562;2023-12-20T07:02:13;100778.50;;;3.36;100.00
62333;BME280;48624;49.812;8.562;2023-12-20T07:04:41;100779.44;;;3.33;100.00
62333;BME280;48624;49.812;8.562;2023-12-20T07:07:06;100782.34;;;3.24;100.00
62333;BME280;48624;49.812;8.562;2023-12-20T07:09:32;100778.69;;;3.30;100.00
62333;BME280;48624;49.812;8.562;2023-12-20T07:11:58;100778.06;;;3.22;100.00
62333;BME280;48624;49.812;8.562;2023-12-20T07:14:23;100787.03;;;3.14;100.00
62333;BME280;48624;49.812;8.562;2023-12-20T07:16:48;100785.03;;;3.23;100.00
62333;BME280;48624;49.812;8.562;2023-12-20T07:19:14;100782.63;;;3.15;100.00
62333;BME280;48624;49.812;8.562;2023-12-20T07:21:39;100793.84;;;3.20;100.00
62333;BME280;48624;49.812;8.562;2023-12-20T07:24:06;100788.59;;;3.20;100.00
62333;BME280;48624;49.812;8.562;2023-12-20T07:26:31;100787.22;;;3.08;100.00
62333;BME280;48624;49.812;8.562;2023-12-20T07:28:56;100781.03;;;3.11;100.00
62333;BME280;48624;49.812;8.562;2023-12-20T07:31:23;100786.06;;;3.17;100.00
62333;BME280;48624;49.812;8.562;2023-12-20T07:33:49;100795.69;;;3.16;100.00
62333;BME280;48624;49.812;8.562;2023-12-20T07:36:14;100796.59;;;3.15;100.00
62333;BME280;48624;49.812;8.562;2023-12-20T07:38:39;100794.94;;;3.13;100.00
62333;BME280;48624;49.812;8.562;2023-12-20T07:41:09;100798.34;;;3.15;100.00
62333;BME280;48624;49.812;8.562;2023-12-20T07:43:34;100800.13;;;3.14;100.00
62333;BME280;48624;49.812;8.562;2023-12-20T07:46:06;100812.03;;;3.25;100.00
62333;BME280;48624;49.812;8.562;2023-12-20T07:48:36;100813.63;;;3.29;100.00
62333;BME280;48624;49.812;8.562;2023-12-20T07:51:02;100811.47;;;3.42;100.00
62333;BME280;48624;49.812;8.562;2023-12-20T07:53:27;100809.63;;;3.45;100.00
62333;BME280;48624;49.812;8.562;2023-12-20T07:55:53;100802.66;;;3.44;100.00
62333;BME280;48624;49.812;8.562;2023-12-20T07:58:18;100815.41;;;3.55;100.00
62333;BME280;48624;49.812;8.562;2023-12-20T08:00:44;100819.03;;;3.51;100.00
62333;BME280;48624;49.812;8.562;2023-12-20T08:03:09;100818.84;;;3.57;100.00
62333;BME280;48624;49.812;8.562;2023-12-20T08:05:35;100814.66;;;3.52;100.00
62333;BME280;48624;49.812;8.562;2023-12-20T08:08:01;100822.56;;;3.50;100.00
62333;BME280;48624;49.812;8.562;2023-12-20T08:10:26;100823.91;;;3.35;100.00
62333;BME280;48624;49.812;8.562;2023-12-20T08:12:54;100821.31;;;3.35;100.00
62333;BME280;48624;49.812;8.562;2023-12-20T08:15:20;100815.41;;;3.28;100.00
62333;BME280;48624;49.812;8.562;2023-12-20T08:17:45;100817.63;;;3.12;100.00
62333;BME280;48624;49.812;8.562;2023-12-20T08:20:10;100814.19;;;3.10;100.00
62333;BME280;48624;49.812;8.562;2023-12-20T08:22:36;100822.81;;;3.14;100.00
62333;BME280;48624;49.812;8.562;2023-12-20T08:25:01;100820.16;;;3.15;100.00
62333;BME280;48624;49.812;8.562;2023-12-20T08:27:28;100823.16;;;3.31;100.00
62333;BME280;48624;49.812;8.562;2023-12-20T08:29:53;100833.34;;;3.12;100.00
62333;BME280;48624;49.812;8.562;2023-12-20T08:32:18;100832.34;;;3.16;100.00
62333;BME280;48624;49.812;8.562;2023-12-20T08:34:43;100844.25;;;3.27;100.00
62333;BME280;48624;49.812;8.562;2023-12-20T08:37:09;100836.16;;;3.35;100.00
62333;BME280;48624;49.812;8.562;2023-12-20T08:39:34;100845.41;;;3.45;100.00
62333;BME280;48624;49.812;8.562;2023-12-20T08:41:59;100851.72;;;3.39;100.00
62333;BME280;48624;49.812;8.562;2023-12-20T08:44:24;100840.44;;;3.37;100.00
62333;BME280;48624;49.812;8.562;2023-12-20T08:46:50;100838.16;;;3.26;100.00
62333;BME280;48624;49.812;8.562;2023-12-20T08:49:15;100838.44;;;3.45;100.00
62333;BME280;48624;49.812;8.562;2023-12-20T08:51:40;100838.59;;;3.41;100.00
62333;BME280;48624;49.812;8.562;2023-12-20T08:54:06;100851.69;;;3.41;100.00
62333;BME280;48624;49.812;8.562;2023-12-20T08:56:33;100855.75;;;3.50;100.00
62333;BME280;48624;49.812;8.562;2023-12-20T08:58:58;100852.16;;;3.54;100.00
62333;BME280;48624;49.812;8.562;2023-12-20T09:01:24;100846.63;;;3.63;100.00
62333;BME280;48624;49.812;8.562;2023-12-20T09:03:49;100842.56;;;3.53;100.00
62333;BME280;48624;49.812;8.562;2023-12-20T09:06:14;100841.38;;;3.63;100.00
62333;BME280;48624;49.812;8.562;2023-12-20T09:08:40;100842.38;;;3.59;100.00
62333;BME280;48624;49.812;8.562;2023-12-20T09:11:06;100849.91;;;3.68;100.00
62333;BME280;48624;49.812;8.562;2023-12-20T09:13:32;100851.34;;;3.79;100.00
62333;BME280;48624;49.812;8.562;2023-12-20T09:15:57;100848.78;;;3.77;100.00
62333;BME280;48624;49.812;8.562;2023-12-20T09:18:23;100852.09;;;3.82;100.00
62333;BME280;48624;49.812;8.562;2023-12-20T09:20:49;100853.72;;;3.86;100.00
62333;BME280;48624;49.812;8.562;2023-12-20T09:23:14;100849.38;;;3.85;100.00
62333;BME280;48624;49.812;8.562;2023-12-20T09:25:40;100848.97;;;3.98;100.00
62333;BME280;48624;49.812;8.562;2023-12-20T09:28:05;100839.59;;;4.16;100.00
62333;BME280;48624;49.812;8.562;2023-12-20T09:30:30;100840.09;;;4.27;100.00
62333;BME280;48624;49.812;8.562;2023-12-20T09:32:57;100835.19;;;4.42;100.00
62333;BME280;48624;49.812;8.562;2023-12-20T09:35:23;100836.66;;;4.75;100.00
62333;BME280;48624;49.812;8.562;2023-12-20T09:37:49;100841.50;;;4.85;100.00
62333;BME280;48624;49.812;8.562;2023-12-20T09:40:18;100832.59;;;4.90;100.00
62333;BME280;48624;49.812;8.562;2023-12-20T09:42:58;100836.88;;;4.92;100.00
62333;BME280;48624;49.812;8.562;2023-12-20T09:45:24;100830.53;;;4.98;100.00
62333;BME280;48624;49.812;8.562;2023-12-20T09:47:54;100833.38;;;5.38;100.00
62333;BME280;48624;49.812;8.562;2023-12-20T09:50:21;100831.09;;;5.28;100.00
62333;BME280;48624;49.812;8.562;2023-12-20T09:52:51;100827.88;;;5.22;100.00
62333;BME280;48624;49.812;8.562;2023-12-20T09:55:18;100827.75;;;5.25;100.00
62333;BME280;48624;49.812;8.562;2023-12-20T09:57:44;100833.59;;;5.32;100.00
62333;BME280;48624;49.812;8.562;2023-12-20T10:00:10;100825.84;;;5.28;100.00
62333;BME280;48624;49.812;8.562;2023-12-20T10:02:38;100828.75;;;5.43;100.00
62333;BME280;48624;49.812;8.562;2023-12-20T10:05:08;100833.56;;;5.33;100.00
62333;BME280;48624;49.812;8.562;2023-12-20T10:07:35;100833.41;;;5.36;100.00
62333;BME280;48624;49.812;8.562;2023-12-20T10:10:01;100828.94;;;5.38;100.00
62333;BME280;48624;49.812;8.562;2023-12-20T10:12:27;100829.63;;;5.44;100.00
62333;BME280;48624;49.812;8.562;2023-12-20T10:14:52;100829.56;;;5.45;100.00
62333;BME280;48624;49.812;8.562;2023-12-20T10:17:17;100832.13;;;5.47;100.00
62333;BME280;48624;49.812;8.562;2023-12-20T10:19:43;100834.56;;;5.51;100.00
62333;BME280;48624;49.812;8.562;2023-12-20T10:22:09;100833.72;;;5.51;100.00
62333;BME280;48624;49.812;8.562;2023-12-20T10:24:35;100829.81;;;5.39;100.00
62333;BME280;48624;49.812;8.562;2023-12-20T10:27:04;100825.97;;;5.68;100.00
62333;BME280;48624;49.812;8.562;2023-12-20T10:29:37;100821.47;;;5.50;100.00
62333;BME280;48624;49.812;8.562;2023-12-20T10:32:25;100817.97;;;5.51;100.00
62333;BME280;48624;49.812;8.562;2023-12-20T10:34:55;100820.47;;;5.75;100.00
62333;BME280;48624;49.812;8.562;2023-12-20T10:37:20;100810.34;;;5.65;100.00
62333;BME280;48624;49.812;8.562;2023-12-20T10:39:53;100807.16;;;5.79;100.00
62333;BME280;48624;49.812;8.562;2023-12-20T10:42:22;100804.72;;;5.75;100.00
62333;BME280;48624;49.812;8.562;2023-12-20T10:44:49;100802.31;;;5.68;99.82
62333;BME280;48624;49.812;8.562;2023-12-20T10:47:15;100801.63;;;5.86;100.00
62333;BME280;48624;49.812;8.562;2023-12-20T10:49:41;100809.34;;;5.90;100.00
62333;BME280;48624;49.812;8.562;2023-12-20T10:52:08;100797.06;;;5.68;99.47
62333;BME280;48624;49.812;8.562;2023-12-20T10:54:34;100798.81;;;5.90;100.00
62333;BME280;48624;49.812;8.562;2023-12-20T10:56:59;100802.94;;;5.75;99.37
62333;BME280;48624;49.812;8.562;2023-12-20T10:59:27;100804.84;;;5.72;100.00
62333;BME280;48624;49.812;8.562;2023-12-20T11:01:55;100804.06;;;5.90;100.00
62333;BME280;48624;49.812;8.562;2023-12-20T11:04:47;100788.88;;;5.97;100.00
62333;BME280;48624;49.812;8.562;2023-12-20T11:10:20;100793.75;;;5.86;100.00
62333;BME280;48624;49.812;8.562;2023-12-20T11:12:56;100789.31;;;5.86;100.00
62333;BME280;48624;49.812;8.562;2023-12-20T11:15:24;100787.56;;;6.28;100.00
62333;BME280;48624;49.812;8.562;2023-12-20T11:17:57;100792.25;;;6.21;99.99
62333;BME280;48624;49.812;8.562;2023-12-20T11:20:36;100790.91;;;5.90;98.81
62333;BME280;48624;49.812;8.562;2023-12-20T11:23:05;100786.19;;;5.99;100.00
62333;BME280;48624;49.812;8.562;2023-12-20T11:25:46;100779.78;;;5.63;98.11
62333;BME280;48624;49.812;8.562;2023-12-20T11:28:12;100778.41;;;5.75;98.64
62333;BME280;48624;49.812;8.562;2023-12-20T11:30:42;100769.81;;;5.71;99.33
62333;BME280;48624;49.812;8.562;2023-12-20T11:33:08;100768.50;;;6.02;98.76
62333;BME280;48624;49.812;8.562;2023-12-20T11:35:34;100767.78;;;5.99;99.31
62333;BME280;48624;49.812;8.562;2023-12-20T11:38:00;100773.44;;;5.89;98.87
62333;BME280;48624;49.812;8.562;2023-12-20T11:40:25;100782.69;;;5.98;99.40
62333;BME280;48624;49.812;8.562;2023-12-20T11:42:51;100785.66;;;5.90;98.79
62333;BME280;48624;49.812;8.562;2023-12-20T11:45:23;100774.84;;;5.96;98.22
62333;BME280;48624;49.812;8.562;2023-12-20T11:47:50;100779.16;;;6.20;98.13
62333;BME280;48624;49.812;8.562;2023-12-20T11:50:17;100773.06;;;6.38;97.19
62333;BME280;48624;49.812;8.562;2023-12-20T11:52:43;100779.50;;;6.12;96.94
62333;BME280;48624;49.812;8.562;2023-12-20T11:55:08;100784.09;;;6.28;98.13
62333;BME280;48624;49.812;8.562;2023-12-20T11:57:34;100776.63;;;6.37;97.91
62333;BME280;48624;49.812;8.562;2023-12-20T11:59:59;100779.41;;;6.34;97.38
62333;BME280;48624;49.812;8.562;2023-12-20T12:02:25;100776.03;;;6.31;98.24
62333;BME280;48624;49.812;8.562;2023-12-20T12:04:50;100777.75;;;6.32;97.03
62333;BME280;48624;49.812;8.562;2023-12-20T12:07:16;100772.72;;;6.06;98.63
62333;BME280;48624;49.812;8.562;2023-12-20T12:09:42;100773.31;;;6.13;99.07
62333;BME280;48624;49.812;8.562;2023-12-20T12:12:08;100783.19;;;6.08;98.23
62333;BME280;48624;49.812;8.562;2023-12-20T12:14:33;100787.19;;;5.96;99.81
62333;BME280;48624;49.812;8.562;2023-12-20T12:17:00;100779.22;;;5.97;99.39
62333;BME280;48624;49.812;8.562;2023-12-20T12:19:26;100776.84;;;5.91;99.84
62333;BME280;48624;49.812;8.562;2023-12-20T12:24:33;100777.09;;;5.85;100.00
62333;BME280;48624;49.812;8.562;2023-12-20T12:26:59;100781.00;;;6.18;99.48
62333;BME280;48624;49.812;8.562;2023-12-20T12:29:24;100777.25;;;6.03;98.76
62333;BME280;48624;49.812;8.562;2023-12-20T12:31:50;100765.94;;;6.01;100.00
62333;BME280;48624;49.812;8.562;2023-12-20T12:34:15;100760.56;;;6.04;100.00
62333;BME280;48624;49.812;8.562;2023-12-20T12:36:41;100753.78;;;5.77;99.96
62333;BME280;48624;49.812;8.562;2023-12-20T12:39:06;100747.34;;;6.05;99.39
62333;BME280;48624;49.812;8.562;2023-12-20T12:41:32;100731.03;;;5.97;100.00
62333;BME280;48624;49.812;8.562;2023-12-20T12:43:57;100716.66;;;6.25;99.42
62333;BME280;48624;49.812;8.562;2023-12-20T12:46:22;100728.13;;;6.62;97.68
62333;BME280;48624;49.812;8.562;2023-12-20T12:48:47;100718.50;;;6.42;96.58
62333;BME280;48624;49.812;8.562;2023-12-20T12:51:14;100724.28;;;6.50;96.96